sensor_id;sensor_type;location;lat;lon;timestamp;pressure;altitude;pressure_sealevel;temperature;humidity
49515;BME280;35415;47.870;16.058;2022-07-15T05:34:13;97419.72;;;18.72;65.71
49515;BME280;35415;47.870;16.058;2022-07-15T05:36:42;97369.59;;;18.42;66.73
49515;BME280;35415;47.870;16.058;2022-07-15T05:39:10;97358.06;;;18.36;66.24
49515;BME280;35415;47.870;16.058;2022-07-15T05:41:38;97384.13;;;18.68;65.57
49515;BME280;35415;47.870;16.058;2022-07-15T05:44:08;97419.09;;;18.75;65.72
49515;BME280;35415;47.870;16.058;2022-07-15T05:46:36;97376.06;;;18.54;66.05
49515;BME280;35415;47.870;16.058;2022-07-15T05:49:04;97385.66;;;18.60;66.06
49515;BME280;35415;47.870;16.058;2022-07-15T05:51:34;97372.84;;;18.61;65.53
49515;BME280;35415;47.870;16.058;2022-07-15T05:54:02;97366.91;;;18.50;65.29
49515;BME280;35415;47.870;16.058;2022-07-15T05:56:30;97442.09;;;19.00;65.61
49515;BME280;35415;47.870;16.058;2022-07-15T05:58:58;97421.38;;;18.81;65.44
49515;BME280;35415;47.870;16.058;2022-07-15T06:01:26;97454.28;;;19.02;65.23
49515;BME280;35415;47.870;16.058;2022-07-15T06:03:56;97414.44;;;18.67;65.18
49515;BME280;35415;47.870;16.058;2022-07-15T06:06:24;97447.03;;;18.89;64.88
49515;BME280;35415;47.870;16.058;2022-07-15T06:08:52;97474.97;;;19.03;64.93
49515;BME280;35415;47.870;16.058;2022-07-15T06:11:22;97464.69;;;19.00;65.84
49515;BME280;35415;47.870;16.058;2022-07-15T06:13:49;97423.41;;;18.76;65.09
49515;BME280;35415;47.870;16.058;2022-07-15T06:16:18;97440.44;;;18.81;64.58
49515;BME280;35415;47.870;16.058;2022-07-15T06:18:45;97472.19;;;18.94;65.06
49515;BME280;35415;47.870;16.058;2022-07-15T06:21:14;97487.31;;;19.09;64.20
49515;BME280;35415;47.870;16.058;2022-07-15T06:23:41;97478.50;;;19.04;64.06
49515;BME280;35415;47.870;16.058;2022-07-15T06:26:10;97439.91;;;18.71;64.31
49515;BME280;35415;47.870;16.058;2022-07-15T06:28:38;97460.13;;;18.78;64.41
49515;BME280;35415;47.870;16.058;2022-07-15T06:31:05;97476.69;;;18.90;63.29
49515;BME280;35415;47.870;16.058;2022-07-15T06:33:35;97466.06;;;18.80;63.91
49515;BME280;35415;47.870;16.058;2022-07-15T06:36:04;97494.81;;;18.95;64.29
49515;BME280;35415;47.870;16.058;2022-07-15T06:38:31;97482.59;;;18.84;64.00
49515;BME280;35415;47.870;16.058;2022-07-15T06:41:01;97490.78;;;18.84;63.24
49515;BME280;35415;47.870;16.058;2022-07-15T06:43:30;97527.56;;;19.04;61.95
49515;BME280;35415;47.870;16.058;2022-07-15T06:45:57;97536.56;;;19.13;61.51
49515;BME280;35415;47.870;16.058;2022-07-15T06:48:26;97466.00;;;18.63;61.53
49515;BME280;35415;47.870;16.058;2022-07-15T06:50:54;97549.38;;;19.12;60.71
49515;BME280;35415;47.870;16.058;2022-07-15T06:53:22;97516.59;;;18.86;60.70
49515;BME280;35415;47.870;16.058;2022-07-15T06:55:50;97546.47;;;19.00;61.84
49515;BME280;35415;47.870;16.058;2022-07-15T06:58:18;97493.66;;;18.56;61.39
49515;BME280;35415;47.870;16.058;2022-07-15T07:00:49;97552.19;;;18.90;60.79
49515;BME280;35415;47.870;16.058;2022-07-15T07:03:16;97573.53;;;18.97;60.40
49515;BME280;35415;47.870;16.058;2022-07-15T07:05:44;97553.94;;;18.86;60.40
49515;BME280;35415;47.870;16.058;2022-07-15T07:08:12;97563.59;;;18.92;60.55
49515;BME280;35415;47.870;16.058;2022-07-15T07:10:40;97583.03;;;18.99;59.93
49515;BME280;35415;47.870;16.058;2022-07-15T07:13:08;97542.81;;;18.74;59.76
49515;BME280;35415;47.870;16.058;2022-07-15T07:15:36;97556.94;;;18.76;59.23
49515;BME280;35415;47.870;16.058;2022-07-15T07:18:05;97556.94;;;18.76;59.60
49515;BME280;35415;47.870;16.058;2022-07-15T07:20:33;97599.25;;;19.04;59.78
49515;BME280;35415;47.870;16.058;2022-07-15T07:23:00;97507.25;;;18.48;60.14
49515;BME280;35415;47.870;16.058;2022-07-15T07:25:28;97559.53;;;18.81;59.90
49515;BME280;35415;47.870;16.058;2022-07-15T07:27:55;97527.81;;;18.62;60.11
49515;BME280;35415;47.870;16.058;2022-07-15T07:30:26;97537.03;;;18.67;59.52
49515;BME280;35415;47.870;16.058;2022-07-15T07:32:54;97556.50;;;18.82;59.94
49515;BME280;35415;47.870;16.058;2022-07-15T07:35:23;97597.81;;;19.07;60.27
49515;BME280;35415;47.870;16.058;2022-07-15T07:37:51;97587.84;;;19.02;59.58
49515;BME280;35415;47.870;16.058;2022-07-15T07:40:19;97526.94;;;18.67;59.19
49515;BME280;35415;47.870;16.058;2022-07-15T07:42:46;97541.22;;;18.73;59.81
49515;BME280;35415;47.870;16.058;2022-07-15T07:45:13;97572.22;;;18.85;59.56
49515;BME280;35415;47.870;16.058;2022-07-15T07:47:43;97529.19;;;18.65;59.89
49515;BME280;35415;47.870;16.058;2022-07-15T07:50:10;97595.41;;;19.05;60.00
49515;BME280;35415;47.870;16.058;2022-07-15T07:52:40;97584.19;;;19.07;59.98
49515;BME280;35415;47.870;16.058;2022-07-15T07:55:10;97583.53;;;19.01;60.28
49515;BME280;35415;47.870;16.058;2022-07-15T07:57:49;97538.00;;;18.71;59.68
49515;BME280;35415;47.870;16.058;2022-07-15T08:00:30;97506.16;;;18.57;60.09
49515;BME280;35415;47.870;16.058;2022-07-15T08:03:11;97565.41;;;19.05;60.66
49515;BME280;35415;47.870;16.058;2022-07-15T08:05:45;97497.06;;;18.62;59.42
49515;BME280;35415;47.870;16.058;2022-07-15T08:11:40;97518.38;;;18.91;59.99
49515;BME280;35415;47.870;16.058;2022-07-15T08:14:21;97534.25;;;18.98;59.53
49515;BME280;35415;47.870;16.058;2022-07-15T08:16:59;97553.13;;;19.16;59.21
49515;BME280;35415;47.870;16.058;2022-07-15T08:19:32;97563.88;;;19.30;59.24
49515;BME280;35415;47.870;16.058;2022-07-15T08:21:59;97599.38;;;19.39;59.36
49515;BME280;35415;47.870;16.058;2022-07-15T08:24:29;97551.69;;;19.19;58.43
49515;BME280;35415;47.870;16.058;2022-07-15T08:26:57;97537.34;;;19.05;58.95
49515;BME280;35415;47.870;16.058;2022-07-15T08:29:29;97569.84;;;19.32;57.35
49515;BME280;35415;47.870;16.058;2022-07-15T08:32:01;97513.56;;;18.97;58.43
49515;BME280;35415;47.870;16.058;2022-07-15T08:34:28;97523.72;;;19.05;57.84
49515;BME280;35415;47.870;16.058;2022-07-15T08:36:56;97602.78;;;19.53;57.41
49515;BME280;35415;47.870;16.058;2022-07-15T08:39:23;97520.56;;;19.20;57.80
49515;BME280;35415;47.870;16.058;2022-07-15T08:41:57;97518.47;;;19.17;58.01
49515;BME280;35415;47.870;16.058;2022-07-15T08:44:25;97533.59;;;19.32;57.08
49515;BME280;35415;47.870;16.058;2022-07-15T08:46:54;97521.22;;;19.34;56.75
49515;BME280;35415;47.870;16.058;2022-07-15T08:49:25;97534.56;;;19.44;56.79
49515;BME280;35415;47.870;16.058;2022-07-15T08:51:57;97481.78;;;19.32;57.79
49515;BME280;35415;47.870;16.058;2022-07-15T08:54:26;97503.78;;;19.52;57.66
49515;BME280;35415;47.870;16.058;2022-07-15T08:56:56;97551.66;;;19.93;57.62
49515;BME280;35415;47.870;16.058;2022-07-15T08:59:26;97553.44;;;20.06;56.55
49515;BME280;35415;47.870;16.058;2022-07-15T09:02:10;97539.63;;;20.03;55.94
49515;BME280;35415;47.870;16.058;2022-07-15T09:07:53;97488.38;;;19.91;56.17
49515;BME280;35415;47.870;16.058;2022-07-15T09:10:22;97490.94;;;19.96;55.87
49515;BME280;35415;47.870;16.058;2022-07-15T09:12:52;97467.03;;;20.02;55.63
49515;BME280;35415;47.870;16.058;2022-07-15T09:15:31;97459.78;;;19.97;55.18
49515;BME280;35415;47.870;16.058;2022-07-15T09:18:04;97520.78;;;20.36;55.09
49515;BME280;35415;47.870;16.058;2022-07-15T09:20:45;97519.81;;;20.40;54.92
49515;BME280;35415;47.870;16.058;2022-07-15T09:23:16;97561.72;;;20.70;54.18
49515;BME280;35415;47.870;16.058;2022-07-15T09:25:47;97570.19;;;20.86;54.03
49515;BME280;35415;47.870;16.058;2022-07-15T09:28:16;97536.66;;;20.68;54.75
49515;BME280;35415;47.870;16.058;2022-07-15T09:30:45;97530.00;;;20.78;54.02
49515;BME280;35415;47.870;16.058;2022-07-15T09:33:32;97581.16;;;21.16;54.18
49515;BME280;35415;47.870;16.058;2022-07-15T09:36:14;97538.00;;;20.92;53.16
49515;BME280;35415;47.870;16.058;2022-07-15T09:38:43;97571.81;;;21.34;53.78
49515;BME280;35415;47.870;16.058;2022-07-15T09:41:19;97513.19;;;20.97;52.16
49515;BME280;35415;47.870;16.058;2022-07-15T09:43:54;97586.03;;;21.48;52.31
49515;BME280;35415;47.870;16.058;2022-07-15T09:46:23;97533.41;;;21.13;51.40
49515;BME280;35415;47.870;16.058;2022-07-15T09:48:58;97538.66;;;21.27;51.54
49515;BME280;35415;47.870;16.058;2022-07-15T09:51:46;97552.59;;;21.43;51.55
49515;BME280;35415;47.870;16.058;2022-07-15T09:54:22;97501.84;;;21.24;51.53
49515;BME280;35415;47.870;16.058;2022-07-15T09:57:07;97548.13;;;21.59;50.28
49515;BME280;35415;47.870;16.058;2022-07-15T09:59:58;97576.88;;;21.95;51.13
49515;BME280;35415;47.870;16.058;2022-07-15T10:02:40;97566.84;;;21.99;49.69
49515;BME280;35415;47.870;16.058;2022-07-15T10:05:08;97520.38;;;21.69;49.36
49515;BME280;35415;47.870;16.058;2022-07-15T10:07:43;97472.03;;;21.52;49.37
49515;BME280;35415;47.870;16.058;2022-07-15T10:10:14;97499.53;;;21.77;49.41
49515;BME280;35415;47.870;16.058;2022-07-15T10:12:52;97537.53;;;21.99;50.69
49515;BME280;35415;47.870;16.058;2022-07-15T10:15:33;97498.63;;;21.73;49.81
49515;BME280;35415;47.870;16.058;2022-07-15T10:18:21;97577.38;;;22.38;50.03
49515;BME280;35415;47.870;16.058;2022-07-15T10:21:00;97505.44;;;22.08;49.92
49515;BME280;35415;47.870;16.058;2022-07-15T10:23:45;97555.34;;;22.47;49.63
49515;BME280;35415;47.870;16.058;2022-07-15T10:26:28;97485.97;;;22.22;50.70
49515;BME280;35415;47.870;16.058;2022-07-15T10:29:04;97525.47;;;22.66;50.43
49515;BME280;35415;47.870;16.058;2022-07-15T10:31:38;97513.34;;;22.67;48.94
49515;BME280;35415;47.870;16.058;2022-07-15T10:34:19;97519.94;;;22.87;49.27
49515;BME280;35415;47.870;16.058;2022-07-15T10:36:55;97531.03;;;23.15;48.17
49515;BME280;35415;47.870;16.058;2022-07-15T10:39:26;97544.97;;;23.34;47.54
49515;BME280;35415;47.870;16.058;2022-07-15T10:41:55;97507.03;;;23.24;47.73
49515;BME280;35415;47.870;16.058;2022-07-15T10:44:25;97532.09;;;23.35;46.95
49515;BME280;35415;47.870;16.058;2022-07-15T10:47:18;97482.88;;;23.30;47.23
49515;BME280;35415;47.870;16.058;2022-07-15T10:49:51;97482.97;;;23.46;44.91
49515;BME280;35415;47.870;16.058;2022-07-15T10:52:19;97532.69;;;23.93;45.14
49515;BME280;35415;47.870;16.058;2022-07-15T10:54:59;97470.06;;;23.58;44.61
49515;BME280;35415;47.870;16.058;2022-07-15T10:57:53;97524.69;;;24.16;45.15
49515;BME280;35415;47.870;16.058;2022-07-15T11:00:26;97456.38;;;23.86;43.83
49515;BME280;35415;47.870;16.058;2022-07-15T11:03:08;97425.22;;;23.82;44.29
49515;BME280;35415;47.870;16.058;2022-07-15T11:06:00;97481.81;;;24.27;44.02
49515;BME280;35415;47.870;16.058;2022-07-15T11:08:48;97513.00;;;24.47;44.28
49515;BME280;35415;47.870;16.058;2022-07-15T11:11:48;97487.03;;;24.44;44.73
49515;BME280;35415;47.870;16.058;2022-07-15T11:14:48;97488.81;;;24.52;44.60
49515;BME280;35415;47.870;16.058;2022-07-15T11:17:17;97492.63;;;24.64;42.41
49515;BME280;35415;47.870;16.058;2022-07-15T11:19:49;97485.09;;;24.76;41.91
49515;BME280;35415;47.870;16.058;2022-07-15T11:22:21;97490.16;;;24.90;42.24
49515;BME280;35415;47.870;16.058;2022-07-15T11:24:49;97429.66;;;24.58;41.01
49515;BME280;35415;47.870;16.058;2022-07-15T11:27:18;97410.03;;;24.60;39.92
49515;BME280;35415;47.870;16.058;2022-07-15T11:29:50;97466.75;;;25.12;40.50
49515;BME280;35415;47.870;16.058;2022-07-15T11:32:22;97455.81;;;25.15;40.76
49515;BME280;35415;47.870;16.058;2022-07-15T11:34:53;97460.78;;;25.26;39.21
49515;BME280;35415;47.870;16.058;2022-07-15T11:37:25;97459.69;;;25.30;40.38
49515;BME280;35415;47.870;16.058;2022-07-15T11:40:07;97506.34;;;25.74;40.67
49515;BME280;35415;47.870;16.058;2022-07-15T11:42:35;97496.25;;;25.82;38.66
49515;BME280;35415;47.870;16.058;2022-07-15T11:45:32;97478.50;;;25.79;40.13
49515;BME280;35415;47.870;16.058;2022-07-15T11:48:00;97498.50;;;25.95;39.78
49515;BME280;35415;47.870;16.058;2022-07-15T11:50:30;97444.41;;;25.68;38.66
49515;BME280;35415;47.870;16.058;2022-07-15T11:52:58;97458.47;;;25.82;37.80
49515;BME280;35415;47.870;16.058;2022-07-15T11:55:28;97445.78;;;25.77;38.57
49515;BME280;35415;47.870;16.058;2022-07-15T11:57:56;97478.34;;;26.11;37.70
49515;BME280;35415;47.870;16.058;2022-07-15T12:00:30;97505.09;;;26.29;37.34
49515;BME280;35415;47.870;16.058;2022-07-15T12:03:07;97496.41;;;26.27;36.97
49515;BME280;35415;47.870;16.058;2022-07-15T12:05:36;97481.75;;;26.23;35.50
49515;BME280;35415;47.870;16.058;2022-07-15T12:08:04;97499.16;;;26.47;34.93
49515;BME280;35415;47.870;16.058;2022-07-15T12:10:36;97494.06;;;26.49;35.75
49515;BME280;35415;47.870;16.058;2022-07-15T12:13:05;97489.28;;;26.46;35.57
49515;BME280;35415;47.870;16.058;2022-07-15T12:15:32;97469.78;;;26.35;36.21
49515;BME280;35415;47.870;16.058;2022-07-15T12:18:00;97506.63;;;26.46;35.92
49515;BME280;35415;47.870;16.058;2022-07-15T12:20:28;97496.81;;;26.49;36.69
49515;BME280;35415;47.870;16.058;2022-07-15T12:23:08;97491.81;;;26.54;36.32
49515;BME280;35415;47.870;16.058;2022-07-15T12:25:36;97507.50;;;26.50;35.83
49515;BME280;35415;47.870;16.058;2022-07-15T12:28:03;97486.59;;;26.49;35.80
49515;BME280;35415;47.870;16.058;2022-07-15T12:30:33;97485.94;;;26.56;35.87
49515;BME280;35415;47.870;16.058;2022-07-15T12:33:14;97473.84;;;26.64;36.23
49515;BME280;35415;47.870;16.058;2022-07-15T12:35:41;97448.75;;;26.50;34.28
49515;BME280;35415;47.870;16.058;2022-07-15T12:38:24;97478.69;;;26.71;35.66
49515;BME280;35415;47.870;16.058;2022-07-15T12:40:52;97467.91;;;26.85;34.68
49515;BME280;35415;47.870;16.058;2022-07-15T12:43:19;97475.75;;;26.83;34.04
49515;BME280;35415;47.870;16.058;2022-07-15T12:45:51;97454.41;;;26.80;34.30
49515;BME280;35415;47.870;16.058;2022-07-15T12:48:18;97494.72;;;27.07;35.49
49515;BME280;35415;47.870;16.058;2022-07-15T12:50:58;97459.94;;;27.03;34.15
49515;BME280;35415;47.870;16.058;2022-07-15T12:53:37;97461.53;;;27.04;34.46
49515;BME280;35415;47.870;16.058;2022-07-15T12:56:07;97452.34;;;26.99;33.27
49515;BME280;35415;47.870;16.058;2022-07-15T12:58:35;97454.78;;;27.01;33.01
49515;BME280;35415;47.870;16.058;2022-07-15T13:01:08;97462.69;;;27.03;34.73
49515;BME280;35415;47.870;16.058;2022-07-15T13:03:36;97459.50;;;27.01;33.73
49515;BME280;35415;47.870;16.058;2022-07-15T13:06:04;97455.28;;;27.07;34.11
49515;BME280;35415;47.870;16.058;2022-07-15T13:08:34;97450.28;;;26.93;33.48
49515;BME280;35415;47.870;16.058;2022-07-15T13:11:03;97468.72;;;27.08;32.98
49515;BME280;35415;47.870;16.058;2022-07-15T13:13:33;97449.00;;;27.10;34.23
49515;BME280;35415;47.870;16.058;2022-07-15T13:16:01;97454.59;;;27.13;33.30
49515;BME280;35415;47.870;16.058;2022-07-15T13:18:30;97433.88;;;27.00;33.46
49515;BME280;35415;47.870;16.058;2022-07-15T13:20:58;97452.38;;;27.22;32.54
49515;BME280;35415;47.870;16.058;2022-07-15T13:23:26;97448.84;;;27.25;32.93
49515;BME280;35415;47.870;16.058;2022-07-15T13:25:55;97447.34;;;27.32;33.32
49515;BME280;35415;47.870;16.058;2022-07-15T13:28:22;97438.97;;;27.24;33.27
49515;BME280;35415;47.870;16.058;2022-07-15T13:30:50;97453.41;;;27.41;33.63
49515;BME280;35415;47.870;16.058;2022-07-15T13:33:19;97433.66;;;27.39;33.51
49515;BME280;35415;47.870;16.058;2022-07-15T13:35:48;97451.53;;;27.48;33.78
49515;BME280;35415;47.870;16.058;2022-07-15T13:38:15;97456.72;;;27.53;33.35
49515;BME280;35415;47.870;16.058;2022-07-15T13:40:42;97445.22;;;27.48;33.78
49515;BME280;35415;47.870;16.058;2022-07-15T13:43:11;97445.25;;;27.51;33.13
49515;BME280;35415;47.870;16.058;2022-07-15T13:45:41;97450.63;;;27.67;32.89
49515;BME280;35415;47.870;16.058;2022-07-15T13:48:08;97441.13;;;27.65;33.39
49515;BME280;35415;47.870;16.058;2022-07-15T13:50:36;97451.13;;;27.73;33.74
49515;BME280;35415;47.870;16.058;2022-07-15T13:53:20;97446.38;;;27.73;34.11
49515;BME280;35415;47.870;16.058;2022-07-15T13:55:47;97452.72;;;27.74;32.96
49515;BME280;35415;47.870;16.058;2022-07-15T13:58:16;97426.06;;;27.62;32.99
49515;BME280;35415;47.870;16.058;2022-07-15T14:00:43;97450.63;;;27.67;32.75
49515;BME280;35415;47.870;16.058;2022-07-15T14:03:10;97443.19;;;27.71;33.24
49515;BME280;35415;47.870;16.058;2022-07-15T14:05:37;97446.69;;;27.68;33.00
49515;BME280;35415;47.870;16.058;2022-07-15T14:08:05;97449.53;;;27.72;32.77
49515;BME280;35415;47.870;16.058;2022-07-15T14:10:32;97454.59;;;27.70;33.53
49515;BME280;35415;47.870;16.058;2022-07-15T14:12:59;97445.91;;;27.68;32.48
49515;BME280;35415;47.870;16.058;2022-07-15T14:15:28;97447.19;;;27.74;33.45
49515;BME280;35415;47.870;16.058;2022-07-15T14:17:57;97442.44;;;27.74;32.89
49515;BME280;35415;47.870;16.058;2022-07-15T14:20:24;97445.13;;;27.71;32.78
49515;BME280;35415;47.870;16.058;2022-07-15T14:22:51;97452.59;;;27.67;32.66
49515;BME280;35415;47.870;16.058;2022-07-15T14:25:18;97452.50;;;27.60;32.87
49515;BME280;35415;47.870;16.058;2022-07-15T14:27:46;97468.53;;;27.50;32.57
49515;BME280;35415;47.870;16.058;2022-07-15T14:30:13;97452.25;;;27.42;33.21
49515;BME280;35415;47.870;16.058;2022-07-15T14:32:44;97455.69;;;27.35;32.27
49515;BME280;35415;47.870;16.058;2022-07-15T14:35:11;97445.25;;;27.21;32.33
49515;BME280;35415;47.870;16.058;2022-07-15T14:37:38;97444.50;;;27.24;33.24
49515;BME280;35415;47.870;16.058;2022-07-15T14:40:07;97449.91;;;27.17;33.39
49515;BME280;35415;47.870;16.058;2022-07-15T14:42:34;97440.56;;;27.25;33.18
49515;BME280;35415;47.870;16.058;2022-07-15T14:45:02;97420.44;;;27.25;33.63
49515;BME280;35415;47.870;16.058;2022-07-15T14:47:30;97439.97;;;27.39;32.55
49515;BME280;35415;47.870;16.058;2022-07-15T14:50:01;97429.00;;;27.46;32.32
49515;BME280;35415;47.870;16.058;2022-07-15T14:52:29;97418.38;;;27.48;31.32
49515;BME280;35415;47.870;16.058;2022-07-15T14:54:56;97430.81;;;27.62;31.88
49515;BME280;35415;47.870;16.058;2022-07-15T14:57:23;97416.56;;;27.60;31.29
49515;BME280;35415;47.870;16.058;2022-07-15T14:59:50;97432.97;;;27.75;31.42
49515;BME280;35415;47.870;16.058;2022-07-15T15:02:17;97429.81;;;27.73;30.45
49515;BME280;35415;47.870;16.058;2022-07-15T15:04:47;97421.63;;;27.84;31.57
49515;BME280;35415;47.870;16.058;2022-07-15T15:07:16;97434.38;;;27.92;31.24
49515;BME280;35415;47.870;16.058;2022-07-15T15:09:43;97422.91;;;27.90;29.96
49515;BME280;35415;47.870;16.058;2022-07-15T15:12:10;97416.72;;;28.04;30.73
49515;BME280;35415;47.870;16.058;2022-07-15T15:14:38;97435.03;;;28.15;31.08
49515;BME280;35415;47.870;16.058;2022-07-15T15:17:05;97431.16;;;28.24;29.46
49515;BME280;35415;47.870;16.058;2022-07-15T15:19:35;97409.09;;;28.27;30.85
49515;BME280;35415;47.870;16.058;2022-07-15T15:22:04;97428.63;;;28.45;30.20
49515;BME280;35415;47.870;16.058;2022-07-15T15:24:34;97416.75;;;28.41;28.39
49515;BME280;35415;47.870;16.058;2022-07-15T15:27:02;97428.69;;;28.52;29.13
49515;BME280;35415;47.870;16.058;2022-07-15T15:29:32;97428.78;;;28.59;29.14
49515;BME280;35415;47.870;16.058;2022-07-15T15:31:59;97425.22;;;28.59;29.03
49515;BME280;35415;47.870;16.058;2022-07-15T15:34:26;97437.50;;;28.65;29.18
49515;BME280;35415;47.870;16.058;2022-07-15T15:36:55;97427.66;;;28.67;29.26
49515;BME280;35415;47.870;16.058;2022-07-15T15:39:23;97433.31;;;28.82;29.75
49515;BME280;35415;47.870;16.058;2022-07-15T15:41:52;97437.66;;;28.83;29.82
49515;BME280;35415;47.870;16.058;2022-07-15T15:44:19;97436.16;;;28.89;29.72
49515;BME280;35415;47.870;16.058;2022-07-15T15:46:48;97432.53;;;28.85;28.71
49515;BME280;35415;47.870;16.058;2022-07-15T15:49:16;97427.50;;;28.90;29.84
49515;BME280;35415;47.870;16.058;2022-07-15T15:51:43;97418.78;;;28.92;30.76
49515;BME280;35415;47.870;16.058;2022-07-15T15:54:11;97348.84;;;28.54;30.13
49515;BME280;35415;47.870;16.058;2022-07-15T15:56:38;97385.03;;;28.75;29.75
49515;BME280;35415;47.870;16.058;2022-07-15T15:59:09;97404.09;;;28.88;30.35
49515;BME280;35415;47.870;16.058;2022-07-15T16:01:37;97377.91;;;28.78;29.94
49515;BME280;35415;47.870;16.058;2022-07-15T16:04:07;97442.59;;;29.03;30.52
49515;BME280;35415;47.870;16.058;2022-07-15T16:06:34;97421.91;;;28.87;31.27
49515;BME280;35415;47.870;16.058;2022-07-15T16:09:02;97431.47;;;28.93;31.57
49515;BME280;35415;47.870;16.058;2022-07-15T16:11:29;97441.19;;;28.80;30.83
49515;BME280;35415;47.870;16.058;2022-07-15T16:13:56;97448.28;;;28.73;31.23
49515;BME280;35415;47.870;16.058;2022-07-15T16:16:25;97441.56;;;28.74;31.54
49515;BME280;35415;47.870;16.058;2022-07-15T16:18:52;97449.41;;;28.69;32.05
49515;BME280;35415;47.870;16.058;2022-07-15T16:21:19;97443.03;;;28.61;31.54
49515;BME280;35415;47.870;16.058;2022-07-15T16:24:10;97446.88;;;28.53;31.74
49515;BME280;35415;47.870;16.058;2022-07-15T16:26:36;97435.66;;;28.35;31.05
49515;BME280;35415;47.870;16.058;2022-07-15T16:29:04;97434.38;;;28.26;31.23
49515;BME280;35415;47.870;16.058;2022-07-15T16:31:32;97452.13;;;28.25;31.48
49515;BME280;35415;47.870;16.058;2022-07-15T16:33:59;97430.91;;;28.02;31.35
49515;BME280;35415;47.870;16.058;2022-07-15T16:36:27;97445.50;;;27.99;31.17
49515;BME280;35415;47.870;16.058;2022-07-15T16:38:54;97447.34;;;27.88;31.52
49515;BME280;35415;47.870;16.058;2022-07-15T16:41:21;97451.13;;;27.73;32.65
49515;BME280;35415;47.870;16.058;2022-07-15T16:43:48;97444.50;;;27.54;32.90
49515;BME280;35415;47.870;16.058;2022-07-15T16:46:16;97455.50;;;27.51;32.91
49515;BME280;35415;47.870;16.058;2022-07-15T16:48:45;97439.91;;;27.36;34.02
49515;BME280;35415;47.870;16.058;2022-07-15T16:51:12;97443.00;;;27.31;34.86
49515;BME280;35415;47.870;16.058;2022-07-15T16:53:39;97450.44;;;27.26;34.65
49515;BME280;35415;47.870;16.058;2022-07-15T16:56:07;97459.09;;;27.25;34.98
49515;BME280;35415;47.870;16.058;2022-07-15T16:58:34;97455.44;;;27.17;34.27
49515;BME280;35415;47.870;16.058;2022-07-15T17:01:02;97446.84;;;26.99;34.84
49515;BME280;35415;47.870;16.058;2022-07-15T17:03:29;97451.13;;;26.97;35.47
49515;BME280;35415;47.870;16.058;2022-07-15T17:05:58;97444.16;;;26.80;35.62
49515;BME280;35415;47.870;16.058;2022-07-15T17:08:26;97462.00;;;26.86;35.04
49515;BME280;35415;47.870;16.058;2022-07-15T17:10:53;97459.56;;;26.81;35.16
49515;BME280;35415;47.870;16.058;2022-07-15T17:13:20;97463.00;;;26.75;34.95
49515;BME280;35415;47.870;16.058;2022-07-15T17:15:47;97470.28;;;26.63;35.19
49515;BME280;35415;47.870;16.058;2022-07-15T17:18:14;97471.41;;;26.59;35.34
49515;BME280;35415;47.870;16.058;2022-07-15T17:20:45;97467.72;;;26.51;36.58
49515;BME280;35415;47.870;16.058;2022-07-15T17:23:13;97470.28;;;26.41;36.16
49515;BME280;35415;47.870;16.058;2022-07-15T17:25:41;97476.97;;;26.40;37.67
49515;BME280;35415;47.870;16.058;2022-07-15T17:28:08;97471.63;;;26.31;36.82
49515;BME280;35415;47.870;16.058;2022-07-15T17:30:36;97472.31;;;26.24;37.15
49515;BME280;35415;47.870;16.058;2022-07-15T17:33:03;97476.75;;;26.09;36.61
49515;BME280;35415;47.870;16.058;2022-07-15T17:35:30;97477.06;;;26.04;36.97
49515;BME280;35415;47.870;16.058;2022-07-15T17:37:58;97464.56;;;25.91;37.48
49515;BME280;35415;47.870;16.058;2022-07-15T17:40:27;97459.56;;;25.77;38.36
49515;BME280;35415;47.870;16.058;2022-07-15T17:42:54;97482.09;;;25.83;38.64
49515;BME280;35415;47.870;16.058;2022-07-15T17:45:22;97453.34;;;25.45;36.89
49515;BME280;35415;47.870;16.058;2022-07-15T17:47:49;97460.50;;;25.50;37.63
49515;BME280;35415;47.870;16.058;2022-07-15T17:50:16;97481.03;;;25.53;37.57
49515;BME280;35415;47.870;16.058;2022-07-15T17:52:45;97494.22;;;25.43;37.32
49515;BME280;35415;47.870;16.058;2022-07-15T17:55:12;97487.84;;;25.39;37.95
49515;BME280;35415;47.870;16.058;2022-07-15T17:57:40;97489.03;;;25.23;37.30
49515;BME280;35415;47.870;16.058;2022-07-15T18:00:09;97488.91;;;25.19;37.55
49515;BME280;35415;47.870;16.058;2022-07-15T18:02:37;97486.88;;;25.16;38.22
49515;BME280;35415;47.870;16.058;2022-07-15T18:05:05;97487.34;;;25.02;37.98
49515;BME280;35415;47.870;16.058;2022-07-15T18:07:32;97433.47;;;24.54;37.92
49515;BME280;35415;47.870;16.058;2022-07-15T18:10:03;97482.09;;;24.81;37.99
49515;BME280;35415;47.870;16.058;2022-07-15T18:12:31;97495.03;;;24.81;38.06
49515;BME280;35415;47.870;16.058;2022-07-15T18:15:00;97479.31;;;24.66;38.96
49515;BME280;35415;47.870;16.058;2022-07-15T18:17:31;97497.19;;;24.72;39.24
49515;BME280;35415;47.870;16.058;2022-07-15T18:19:58;97472.13;;;24.45;39.68
49515;BME280;35415;47.870;16.058;2022-07-15T18:22:26;97490.31;;;24.50;40.37
49515;BME280;35415;47.870;16.058;2022-07-15T18:24:53;97492.09;;;24.42;39.84
49515;BME280;35415;47.870;16.058;2022-07-15T18:27:21;97494.38;;;24.40;39.90
49515;BME280;35415;47.870;16.058;2022-07-15T18:29:49;97503.00;;;24.39;40.32
49515;BME280;35415;47.870;16.058;2022-07-15T18:32:18;97511.81;;;24.32;40.35
49515;BME280;35415;47.870;16.058;2022-07-15T18:34:45;97510.47;;;24.26;40.88
49515;BME280;35415;47.870;16.058;2022-07-15T18:37:12;97449.00;;;23.62;42.39
49515;BME280;35415;47.870;16.058;2022-07-15T18:39:39;97512.03;;;23.99;40.08
49515;BME280;35415;47.870;16.058;2022-07-15T18:42:07;97477.13;;;23.72;40.50
49515;BME280;35415;47.870;16.058;2022-07-15T18:44:34;97521.69;;;23.93;40.92
49515;BME280;35415;47.870;16.058;2022-07-15T18:47:01;97503.53;;;23.76;41.24